Time;durP1;ratioP1;P1;durP2;ratioP2;P2;SDS_P1;SDS_P2;PMS_P1;PMS_P2;Temp;Humidity;BMP_temperature;BMP_pressure;BME280_temperature;BME280_humidity;BME280_pressure;Samples;Min_cycle;Max_cycle;Signal;HPM_P1;HPM_P2
2022/10/18 00:00:54;;;;;;;7.03;5.18;;;;;;;16.84;92.22;99552.94;5012796;28;103989;-64
2022/10/18 00:03:23;;;;;;;9.93;5.67;;;;;;;16.78;92.72;99559.63;5008904;28;103440;-64
2022/10/18 00:05:51;;;;;;;6.68;5.13;;;;;;;17.02;91.15;99559.34;5010930;28;102718;-64
2022/10/18 00:08:21;;;;;;;8.63;4.68;;;;;;;17.06;90.32;99566.16;5009857;28;102926;-64
2022/10/18 00:10:49;;;;;;;11.35;5.45;;;;;;;16.99;90.84;99562.28;5013193;27;104004;-64
2022/10/18 00:13:19;;;;;;;7.05;5.40;;;;;;;16.84;91.56;99563.59;5013068;28;104412;-64
2022/10/18 00:15:51;;;;;;;8.55;5.13;;;;;;;16.76;91.58;99569.56;5017079;28;102651;-64
2022/10/18 00:18:19;;;;;;;7.55;5.00;;;;;;;16.84;91.14;99580.47;5016092;28;103864;-64
2022/10/18 00:20:57;;;;;;;9.40;4.95;;;;;;;16.87;90.71;99571.34;5010006;28;106049;-64
2022/10/18 00:23:27;;;;;;;8.98;5.35;;;;;;;16.75;91.08;99576.75;5013044;28;103275;-64
2022/10/18 00:26:00;;;;;;;7.93;5.82;;;;;;;16.59;92.09;99578.97;5013534;28;102816;-64
2022/10/18 00:28:28;;;;;;;8.77;5.45;;;;;;;16.77;91.09;99581.94;5017751;28;102674;-65
2022/10/18 00:30:55;;;;;;;7.95;4.72;;;;;;;17.01;89.60;99571.03;4992484;28;104506;-63
2022/10/18 00:33:23;;;;;;;9.25;4.80;;;;;;;17.16;88.90;99570.56;5013152;28;103309;-64
2022/10/18 00:35:51;;;;;;;4.80;3.42;;;;;;;17.49;86.94;99576.66;5014095;28;103034;-64
2022/10/18 00:38:19;;;;;;;4.05;3.65;;;;;;;17.45;86.65;99565.38;5012316;28;102703;-64
2022/10/18 00:40:48;;;;;;;4.20;3.80;;;;;;;17.55;85.98;99570.78;4995137;28;103691;-64
2022/10/18 00:43:18;;;;;;;9.93;4.50;;;;;;;17.52;85.73;99561.19;5011656;28;103243;-64
2022/10/18 00:45:48;;;;;;;4.38;3.78;;;;;;;17.43;86.44;99562.00;5013288;28;103128;-64
2022/10/18 00:48:18;;;;;;;9.68;4.53;;;;;;;17.32;86.72;99570.94;5014267;28;104077;-64
2022/10/18 00:50:47;;;;;;;9.02;4.57;;;;;;;17.27;87.09;99573.16;5013352;28;104316;-64
2022/10/18 00:53:19;;;;;;;7.45;3.67;;;;;;;17.18;87.19;99573.94;5010663;28;103814;-64
2022/10/18 00:55:49;;;;;;;11.55;5.63;;;;;;;17.18;86.96;99573.94;4992544;28;104018;-64
2022/10/18 00:58:18;;;;;;;6.38;4.28;;;;;;;17.34;86.75;99578.81;5016618;28;102738;-64
2022/10/18 01:00:46;;;;;;;7.57;4.35;;;;;;;17.21;86.96;99571.00;5011429;28;103448;-63
2022/10/18 01:03:14;;;;;;;5.00;4.53;;;;;;;17.28;87.50;99574.00;5013425;28;103349;-64
2022/10/18 01:05:47;;;;;;;5.93;5.32;;;;;;;17.23;87.41;99571.75;5013298;28;102776;-64
2022/10/18 01:08:44;;;;;;;4.82;4.13;;;;;;;17.07;88.52;99567.81;5015806;28;104889;-64
2022/10/18 01:11:43;;;;;;;5.90;3.55;;;;;;;16.99;88.61;99572.97;5012205;28;103722;-64
2022/10/18 01:14:35;;;;;;;5.90;4.77;;;;;;;16.81;89.95;99564.72;5011763;28;103293;-66
2022/10/18 01:17:14;;;;;;;4.40;3.22;;;;;;;16.90;89.89;99571.91;5012204;28;102873;-66
2022/10/18 01:20:14;;;;;;;10.10;5.30;;;;;;;16.95;89.13;99560.88;5014585;28;103988;-64
2022/10/18 01:22:45;;;;;;;7.50;4.32;;;;;;;16.96;88.96;99555.38;4994895;27;103326;-64
2022/10/18 01:25:25;;;;;;;3.50;3.20;;;;;;;17.05;88.35;99553.75;4995698;28;104327;-63
2022/10/18 01:28:01;;;;;;;5.60;4.43;;;;;;;16.90;88.73;99557.75;5012877;28;102768;-64
2022/10/18 01:30:46;;;;;;;11.05;3.88;;;;;;;16.87;89.77;99568.69;5013773;28;103369;-64
2022/10/18 01:33:22;;;;;;;5.65;3.65;;;;;;;16.95;89.12;99567.06;5012322;28;104121;-64
2022/10/18 01:35:56;;;;;;;3.58;3.28;;;;;;;17.06;88.44;99574.16;5013834;28;103359;-64
2022/10/18 01:38:25;;;;;;;5.95;3.75;;;;;;;17.15;87.78;99565.38;5014433;28;104203;-63
2022/10/18 01:40:56;;;;;;;4.70;4.20;;;;;;;16.92;88.89;99567.31;5012313;28;103979;-64
2022/10/18 01:43:29;;;;;;;8.45;4.90;;;;;;;17.21;87.48;99562.13;5012514;28;103669;-65
2022/10/18 01:46:00;;;;;;;5.22;3.85;;;;;;;17.24;87.23;99562.72;5013137;28;103314;-64
2022/10/18 01:48:29;;;;;;;7.65;4.80;;;;;;;17.30;86.37;99569.38;5013970;28;102777;-64
2022/10/18 01:50:58;;;;;;;7.35;4.80;;;;;;;17.12;86.79;99568.28;5009683;28;103988;-65
2022/10/18 01:53:29;;;;;;;7.30;5.00;;;;;;;16.55;90.58;99569.56;5013886;28;103261;-64
2022/10/18 01:56:13;;;;;;;8.07;4.47;;;;;;;16.67;90.32;99573.84;5011430;28;105842;-64
2022/10/18 01:58:48;;;;;;;6.20;4.55;;;;;;;16.78;89.59;99568.50;5011804;28;104286;-64
2022/10/18 02:01:25;;;;;;;10.38;6.50;;;;;;;16.89;88.45;99567.56;5009480;28;102982;-64
2022/10/18 02:03:56;;;;;;;7.43;5.13;;;;;;;16.89;88.14;99562.25;4993234;28;104700;-64
2022/10/18 02:06:29;;;;;;;6.38;5.18;;;;;;;16.59;89.53;99570.97;5010029;28;103235;-64
2022/10/18 02:09:04;;;;;;;5.78;4.72;;;;;;;16.67;89.80;99573.84;5005928;28;102829;-64
2022/10/18 02:11:33;;;;;;;9.15;4.97;;;;;;;16.66;89.77;99572.19;5012871;28;103763;-64
2022/10/18 02:14:07;;;;;;;10.05;5.95;;;;;;;16.57;89.56;99570.28;5012044;28;104272;-64
2022/10/18 02:16:41;;;;;;;9.80;4.40;;;;;;;16.64;90.11;99571.47;4992404;28;104347;-64
2022/10/18 02:19:12;;;;;;;4.38;3.60;;;;;;;16.90;88.35;99573.75;5010949;28;102897;-64
2022/10/18 02:21:43;;;;;;;6.78;4.90;;;;;;;16.96;87.97;99568.72;5014290;28;104251;-64
2022/10/18 02:24:12;;;;;;;6.85;4.72;;;;;;;16.87;87.61;99574.84;5012103;28;104317;-64
2022/10/18 02:26:40;;;;;;;5.88;3.90;;;;;;;17.09;87.45;99563.22;5012744;28;103391;-64
2022/10/18 02:29:09;;;;;;;4.40;3.63;;;;;;;17.17;86.59;99556.25;5010658;28;102924;-64
2022/10/18 02:31:44;;;;;;;6.18;4.70;;;;;;;16.96;87.09;99551.88;5013255;28;102775;-63
2022/10/18 02:34:19;;;;;;;9.15;5.50;;;;;;;17.04;86.74;99549.41;5010246;28;103916;-63
2022/10/18 02:36:51;;;;;;;10.27;5.40;;;;;;;16.85;87.43;99549.25;5014319;28;103561;-63
2022/10/18 02:39:23;;;;;;;4.72;3.95;;;;;;;17.17;86.53;99550.91;4992909;28;102726;-64
2022/10/18 02:41:51;;;;;;;5.80;4.15;;;;;;;17.25;85.53;99552.91;4994966;28;103755;-64
2022/10/18 02:44:18;;;;;;;5.53;3.87;;;;;;;17.20;86.26;99544.44;5010372;27;104915;-64
2022/10/18 02:46:48;;;;;;;4.28;3.88;;;;;;;17.26;86.00;99549.25;5012341;28;103583;-64
2022/10/18 02:49:16;;;;;;;4.47;3.60;;;;;;;17.33;85.16;99548.59;5016415;28;102732;-64
2022/10/18 02:51:43;;;;;;;8.02;4.93;;;;;;;17.26;85.08;99538.59;5012172;28;103790;-64
2022/10/18 02:54:11;;;;;;;5.83;4.33;;;;;;;17.26;85.04;99550.09;5008318;28;104059;-64
2022/10/18 02:56:39;;;;;;;5.73;4.17;;;;;;;17.32;84.73;99543.38;5010323;28;103250;-64
2022/10/18 02:59:07;;;;;;;5.07;3.20;;;;;;;17.28;84.74;99544.63;5012218;28;102568;-63
2022/10/18 03:01:35;;;;;;;8.32;4.63;;;;;;;17.19;85.05;99537.41;5014576;28;102681;-64
2022/10/18 03:04:05;;;;;;;8.95;4.75;;;;;;;17.02;85.70;99540.66;5012391;28;104237;-64
2022/10/18 03:06:33;;;;;;;6.88;4.22;;;;;;;16.96;85.65;99544.72;4986772;28;104225;-64
2022/10/18 03:09:02;;;;;;;7.17;4.37;;;;;;;17.04;85.47;99533.41;5016364;28;102865;-64
2022/10/18 03:11:30;;;;;;;6.35;4.22;;;;;;;17.06;85.17;99537.63;5013464;28;103968;-65
2022/10/18 03:13:58;;;;;;;6.85;4.28;;;;;;;17.00;85.10;99542.63;4995864;28;104267;-65
2022/10/18 03:16:26;;;;;;;6.30;4.35;;;;;;;17.08;84.97;99542.81;5009545;28;103257;-65
2022/10/18 03:18:54;;;;;;;7.00;4.72;;;;;;;17.14;84.42;99544.97;5012288;28;102719;-64
2022/10/18 03:21:25;;;;;;;6.35;3.70;;;;;;;17.21;84.12;99540.78;5015741;28;103967;-64
2022/10/18 03:23:55;;;;;;;8.57;3.65;;;;;;;17.22;83.86;99537.13;5012240;28;104138;-64
2022/10/18 03:26:23;;;;;;;11.38;5.07;;;;;;;17.03;83.91;99537.03;5009903;28;103289;-64
2022/10/18 03:28:51;;;;;;;4.03;3.63;;;;;;;17.24;83.97;99540.50;4991803;28;102831;-64
2022/10/18 03:31:18;;;;;;;4.45;3.58;;;;;;;17.17;84.03;99539.38;4994002;28;103995;-65
2022/10/18 03:33:46;;;;;;;4.25;3.17;;;;;;;17.29;83.29;99538.31;4997062;28;104164;-64
2022/10/18 03:36:14;;;;;;;9.23;4.73;;;;;;;17.26;82.75;99538.59;5010409;28;103442;-64
2022/10/18 03:38:43;;;;;;;4.93;4.07;;;;;;;17.10;83.74;99532.84;5011001;28;102968;-66
2022/10/18 03:41:11;;;;;;;6.35;3.33;;;;;;;17.10;84.12;99532.84;5011300;28;104170;-67
2022/10/18 03:43:39;;;;;;;7.25;4.10;;;;;;;17.08;84.29;99534.81;5013704;28;104246;-66
2022/10/18 03:46:09;;;;;;;4.57;3.67;;;;;;;17.00;83.82;99527.47;5011366;27;102911;-67
2022/10/18 03:48:36;;;;;;;5.47;3.35;;;;;;;17.07;84.26;99527.78;5002808;28;102895;-67
2022/10/18 03:51:04;;;;;;;5.82;4.10;;;;;;;16.97;83.85;99532.22;5011383;28;103757;-66
2022/10/18 03:53:32;;;;;;;5.13;3.13;;;;;;;17.08;83.62;99530.31;5010945;28;103894;-64
2022/10/18 03:56:04;;;;;;;5.22;3.58;;;;;;;17.08;83.49;99524.13;5010207;28;103483;-65
2022/10/18 04:00:25;;;;;;;9.85;4.20;;;;;;;17.04;83.64;99525.41;5122435;27;102700;-66
2022/10/18 04:02:53;;;;;;;7.93;4.55;;;;;;;17.01;83.33;99523.00;5100113;27;104165;-65
2022/10/18 04:05:25;;;;;;;4.78;3.55;;;;;;;16.89;83.97;99529.34;5095389;27;103954;-66
2022/10/18 04:07:54;;;;;;;5.88;3.95;;;;;;;16.75;84.40;99533.22;5081986;27;103707;-66
2022/10/18 04:10:22;;;;;;;7.65;4.50;;;;;;;16.72;83.70;99528.13;5078318;27;102759;-66
2022/10/18 04:12:49;;;;;;;4.38;3.67;;;;;;;16.84;83.94;99523.56;5099313;27;103178;-65
2022/10/18 04:15:17;;;;;;;6.57;4.28;;;;;;;16.79;83.65;99530.13;5100113;27;103953;-65
2022/10/18 04:17:47;;;;;;;9.23;4.00;;;;;;;16.89;83.19;99540.88;5094826;27;104259;-65
2022/10/18 04:20:15;;;;;;;6.63;4.45;;;;;;;16.87;82.76;99536.66;5098927;27;102682;-65
2022/10/18 04:22:42;;;;;;;4.78;4.30;;;;;;;16.76;84.19;99540.22;5085130;27;103882;-65
2022/10/18 04:25:12;;;;;;;9.30;4.57;;;;;;;16.85;83.59;99541.25;5096232;27;104235;-65
2022/10/18 04:27:40;;;;;;;7.20;4.10;;;;;;;16.99;83.35;99538.25;5098544;27;103292;-65
2022/10/18 04:30:09;;;;;;;5.60;4.73;;;;;;;16.89;83.52;99534.69;5103560;27;102772;-65
2022/10/18 04:32:37;;;;;;;5.00;3.88;;;;;;;16.88;83.49;99531.19;5099681;27;102794;-65
2022/10/18 04:35:07;;;;;;;5.38;3.70;;;;;;;16.95;82.70;99540.38;5093673;27;103844;-65
2022/10/18 04:37:34;;;;;;;6.18;4.47;;;;;;;16.63;84.46;99540.41;5083835;27;103368;-64
2022/10/18 04:40:03;;;;;;;5.50;4.68;;;;;;;16.75;84.17;99542.06;5078444;27;103969;-65
2022/10/18 04:42:30;;;;;;;4.72;4.03;;;;;;;16.79;83.39;99543.47;5083527;27;104643;-65
2022/10/18 04:45:00;;;;;;;6.40;4.85;;;;;;;16.72;84.38;99549.47;5095346;27;104429;-65
2022/10/18 04:47:28;;;;;;;8.63;4.20;;;;;;;16.91;83.61;99546.09;5100895;27;103225;-64
2022/10/18 04:49:56;;;;;;;7.47;4.30;;;;;;;16.85;83.60;99543.94;5079818;27;102808;-65
2022/10/18 04:52:25;;;;;;;8.73;5.55;;;;;;;16.62;84.53;99549.38;5096356;27;103929;-66
2022/10/18 04:54:53;;;;;;;7.13;4.75;;;;;;;16.63;84.96;99551.09;5100678;27;103759;-65
2022/10/18 04:57:21;;;;;;;12.30;5.00;;;;;;;16.36;86.26;99545.38;5081017;27;104556;-65
2022/10/18 04:59:48;;;;;;;10.47;4.93;;;;;;;16.24;87.24;99549.03;5101839;27;102924;-65
2022/10/18 05:02:16;;;;;;;10.43;4.80;;;;;;;16.21;87.42;99554.59;5098165;27;103699;-65
2022/10/18 05:04:44;;;;;;;8.20;4.80;;;;;;;16.13;88.04;99551.72;5098495;27;103358;-65
2022/10/18 05:07:12;;;;;;;7.60;4.27;;;;;;;15.90;89.48;99550.06;5080728;27;104344;-65
2022/10/18 05:09:41;;;;;;;7.10;4.63;;;;;;;16.09;88.58;99555.59;5099059;27;102622;-66
2022/10/18 05:12:11;;;;;;;4.73;3.90;;;;;;;16.16;88.85;99551.47;5067683;27;104055;-66
2022/10/18 05:14:39;;;;;;;6.00;3.10;;;;;;;16.14;89.27;99558.75;5084331;27;103762;-65
2022/10/18 05:17:06;;;;;;;4.50;3.63;;;;;;;16.49;87.14;99556.69;5084625;27;103249;-65
2022/10/18 05:19:34;;;;;;;4.27;3.87;;;;;;;16.53;86.38;99557.28;5086540;27;102946;-65
2022/10/18 05:22:04;;;;;;;6.80;4.03;;;;;;;16.57;85.86;99554.25;5085554;27;103751;-65
2022/10/18 05:24:32;;;;;;;7.63;4.55;;;;;;;16.63;85.66;99556.44;5065709;27;104071;-65
2022/10/18 05:27:01;;;;;;;9.10;4.90;;;;;;;16.23;86.80;99552.66;5083079;27;103022;-65
2022/10/18 05:29:29;;;;;;;7.60;4.28;;;;;;;15.88;90.31;99554.69;5067048;27;102785;-65
2022/10/18 05:31:59;;;;;;;7.73;4.80;;;;;;;16.11;88.09;99545.69;5085242;27;104167;-65
2022/10/18 05:34:30;;;;;;;4.23;3.47;;;;;;;16.41;87.26;99551.16;5085379;27;103486;-65
2022/10/18 05:37:01;;;;;;;6.97;4.93;;;;;;;16.02;88.05;99543.75;5085166;27;103087;-66
2022/10/18 05:39:29;;;;;;;8.20;4.27;;;;;;;15.92;89.32;99553.44;5054874;27;103260;-66
2022/10/18 05:42:01;;;;;;;5.77;5.23;;;;;;;15.83;89.31;99554.22;5054293;27;104006;-64
2022/10/18 05:44:29;;;;;;;7.87;5.37;;;;;;;15.73;90.57;99558.56;5056091;27;103161;-64
2022/10/18 05:46:56;;;;;;;11.83;5.67;;;;;;;15.36;92.00;99555.28;5050814;27;103304;-64
2022/10/18 05:49:24;;;;;;;9.97;5.00;;;;;;;15.19;93.43;99559.25;5004344;28;102892;-64
2022/10/18 05:51:52;;;;;;;10.20;5.10;;;;;;;15.16;93.38;99553.34;4996663;28;103897;-64
2022/10/18 05:54:20;;;;;;;9.70;5.10;;;;;;;14.93;95.35;99560.44;4994762;28;103339;-65
2022/10/18 05:56:47;;;;;;;7.37;4.83;;;;;;;15.30;93.87;99555.78;4996054;28;103297;-64
2022/10/18 05:59:17;;;;;;;4.27;3.33;;;;;;;15.55;92.15;99551.06;4991963;28;103005;-64
2022/10/18 06:01:44;;;;;;;5.53;4.43;;;;;;;15.61;91.18;99555.91;4995553;28;103820;-65
2022/10/18 06:04:12;;;;;;;6.23;5.00;;;;;;;15.35;92.35;99551.78;4993892;28;104091;-64
2022/10/18 06:06:40;;;;;;;9.83;5.27;;;;;;;15.12;93.80;99555.38;4973683;28;103465;-65
2022/10/18 06:09:08;;;;;;;7.10;4.60;;;;;;;15.16;94.20;99556.81;5000269;27;102987;-64
2022/10/18 06:11:36;;;;;;;11.57;5.10;;;;;;;15.04;95.17;99560.47;4986257;28;102855;-64
2022/10/18 06:14:04;;;;;;;6.97;5.07;;;;;;;14.98;95.06;99555.59;4991109;28;102711;-64
2022/10/18 06:16:34;;;;;;;9.33;5.17;;;;;;;15.02;95.44;99562.38;4988308;28;104516;-64
2022/10/18 06:19:06;;;;;;;9.37;5.33;;;;;;;15.03;96.27;99554.28;4986069;28;103150;-65
2022/10/18 06:21:34;;;;;;;5.27;3.87;;;;;;;15.39;94.21;99553.22;4986795;28;103384;-64
2022/10/18 06:24:02;;;;;;;7.77;5.80;;;;;;;15.46;93.51;99556.25;4988641;28;104478;-64
2022/10/18 06:26:30;;;;;;;4.87;4.40;;;;;;;15.41;93.88;99559.25;4996315;28;103107;-64
2022/10/18 06:28:57;;;;;;;8.60;5.50;;;;;;;15.65;92.67;99560.03;4994151;28;102657;-64
2022/10/18 06:31:25;;;;;;;10.23;5.93;;;;;;;15.92;91.35;99564.13;5001064;28;103835;-64
2022/10/18 06:33:55;;;;;;;8.40;5.53;;;;;;;15.81;92.46;99566.78;5001847;28;103335;-64
2022/10/18 06:36:23;;;;;;;7.57;4.53;;;;;;;16.11;91.21;99575.00;5000618;28;104564;-64
2022/10/18 06:38:51;;;;;;;14.50;5.40;;;;;;;16.08;91.38;99570.75;5000509;28;103354;-64
2022/10/18 06:41:20;;;;;;;6.73;4.43;;;;;;;16.25;91.02;99572.06;5003079;28;103840;-64
2022/10/18 06:43:49;;;;;;;7.73;5.07;;;;;;;16.64;88.91;99574.13;5002520;28;103856;-64
2022/10/18 06:46:17;;;;;;;9.87;4.37;;;;;;;16.72;87.77;99571.66;5002664;28;103232;-64
2022/10/18 06:48:45;;;;;;;5.93;5.23;;;;;;;16.83;87.14;99577.91;5000323;28;103711;-65
2022/10/18 06:51:15;;;;;;;7.97;4.97;;;;;;;16.91;86.85;99575.44;5003123;28;104127;-65
2022/10/18 06:53:43;;;;;;;10.50;4.80;;;;;;;16.80;86.76;99587.88;5001418;28;104042;-62
2022/10/18 06:56:30;;;;;;;10.43;4.83;;;;;;;16.76;87.81;99586.44;5000376;28;104165;-65
2022/10/18 06:58:58;;;;;;;5.50;4.43;;;;;;;16.80;88.52;99585.22;5002430;28;102991;-65
2022/10/18 07:01:27;;;;;;;9.63;5.43;;;;;;;16.75;88.49;99582.09;5002075;28;102883;-65
2022/10/18 07:03:55;;;;;;;5.27;3.60;;;;;;;17.00;87.94;99580.00;5002698;28;103561;-65
2022/10/18 07:06:24;;;;;;;6.60;4.87;;;;;;;16.96;87.90;99578.56;5001414;28;103268;-64
2022/10/18 07:08:53;;;;;;;6.00;3.63;;;;;;;17.14;86.89;99582.34;5015779;28;102799;-64
2022/10/18 07:11:24;;;;;;;9.63;6.77;;;;;;;17.28;85.76;99580.19;5002475;28;103623;-63
2022/10/18 07:13:52;;;;;;;6.10;4.10;;;;;;;17.39;86.91;99572.09;5001076;28;103835;-63
2022/10/18 07:16:21;;;;;;;7.13;4.90;;;;;;;17.38;87.54;99578.41;5000998;28;103356;-62
2022/10/18 07:18:50;;;;;;;4.80;4.17;;;;;;;17.31;87.98;99584.44;5002178;28;102708;-63
2022/10/18 07:21:20;;;;;;;6.40;4.10;;;;;;;17.39;86.89;99588.13;5002074;28;103111;-62
2022/10/18 07:23:52;;;;;;;4.07;3.53;;;;;;;17.59;86.12;99588.25;4999412;28;103518;-63
2022/10/18 07:26:22;;;;;;;8.32;4.70;;;;;;;17.72;85.79;99595.06;5000928;28;103180;-62
2022/10/18 07:28:53;;;;;;;6.70;4.10;;;;;;;17.68;86.84;99596.31;5001211;28;102561;-63
2022/10/18 07:31:22;;;;;;;10.88;6.78;;;;;;;17.47;86.74;99595.47;5002468;28;104095;-63
2022/10/18 07:33:50;;;;;;;6.60;5.70;;;;;;;17.78;87.05;99594.53;5001454;28;103135;-62
2022/10/18 07:36:19;;;;;;;9.00;5.40;;;;;;;17.79;87.31;99596.22;5001535;28;103292;-63
2022/10/18 07:38:50;;;;;;;4.15;3.75;;;;;;;17.89;87.10;99598.91;4998838;28;102657;-63
2022/10/18 07:41:18;;;;;;;6.13;4.63;;;;;;;17.82;87.99;99595.94;5001833;28;103797;-63
2022/10/18 07:43:49;;;;;;;5.47;3.97;;;;;;;17.94;88.39;99592.19;5001150;28;103300;-63
2022/10/18 07:46:18;;;;;;;4.75;3.90;;;;;;;18.25;87.39;99597.47;5001908;28;103386;-63
2022/10/18 07:48:46;;;;;;;10.73;4.03;;;;;;;18.37;86.65;99588.34;5001287;28;103108;-64
2022/10/18 07:51:14;;;;;;;5.22;3.95;;;;;;;18.43;86.16;99594.00;5001751;28;102720;-64
2022/10/18 07:53:42;;;;;;;9.95;4.78;;;;;;;18.35;85.96;99596.53;4999584;28;103667;-64
2022/10/18 07:56:15;;;;;;;7.95;3.75;;;;;;;18.36;85.52;99595.53;4997561;28;103049;-64
2022/10/18 07:58:44;;;;;;;8.93;5.13;;;;;;;18.65;84.31;99595.59;5002334;28;102715;-64
2022/10/18 08:01:13;;;;;;;7.25;4.70;;;;;;;18.85;84.71;99591.94;5008477;28;102732;-64
2022/10/18 08:03:41;;;;;;;9.90;5.03;;;;;;;19.06;84.61;99589.94;5000682;28;103285;-65
2022/10/18 08:06:11;;;;;;;8.15;4.53;;;;;;;19.24;83.59;99583.84;4999739;28;104328;-64
2022/10/18 08:08:40;;;;;;;7.65;4.85;;;;;;;19.38;83.29;99599.47;4999896;28;103163;-65
2022/10/18 08:11:11;;;;;;;5.45;4.45;;;;;;;19.42;82.25;99603.59;4999458;28;104329;-65
2022/10/18 08:13:39;;;;;;;5.65;4.15;;;;;;;19.37;81.68;99608.50;5000923;28;103371;-65
2022/10/18 08:16:09;;;;;;;11.13;5.68;;;;;;;19.35;82.13;99610.47;4999850;28;103294;-65
2022/10/18 08:18:37;;;;;;;8.05;4.82;;;;;;;19.55;83.04;99609.47;4992634;28;102659;-64
2022/10/18 08:21:07;;;;;;;6.75;4.15;;;;;;;19.61;83.77;99606.19;5001648;28;103630;-65
2022/10/18 08:23:35;;;;;;;7.38;4.82;;;;;;;19.61;83.52;99606.19;4998763;28;103946;-65
2022/10/18 08:26:04;;;;;;;5.25;3.72;;;;;;;19.67;83.43;99602.94;5000563;28;102963;-67
2022/10/18 08:28:35;;;;;;;9.65;4.88;;;;;;;19.83;82.33;99607.66;4999088;28;102888;-65
2022/10/18 08:31:04;;;;;;;9.60;4.88;;;;;;;19.74;82.18;99622.78;5001783;28;103084;-65
2022/10/18 08:33:32;;;;;;;8.98;4.80;;;;;;;19.78;82.46;99624.22;4998505;28;103427;-65
2022/10/18 08:36:04;;;;;;;13.30;5.30;;;;;;;19.84;82.27;99620.94;5001106;28;103346;-65
2022/10/18 08:38:33;;;;;;;10.02;4.57;;;;;;;19.94;82.36;99627.09;4998291;28;102781;-65
2022/10/18 08:41:14;;;;;;;8.20;4.45;;;;;;;19.91;80.89;99627.38;4992692;28;104932;-65
2022/10/18 08:43:52;;;;;;;3.72;3.42;;;;;;;20.17;82.03;99620.34;4999469;28;103905;-65
2022/10/18 08:46:21;;;;;;;5.85;3.83;;;;;;;20.15;82.91;99616.97;4999622;28;103246;-65
2022/10/18 08:48:52;;;;;;;3.55;3.00;;;;;;;20.54;80.50;99608.72;5003482;28;102684;-65
2022/10/18 08:51:29;;;;;;;5.28;3.75;;;;;;;20.77;75.85;99623.41;5002278;28;103876;-65
2022/10/18 08:54:03;;;;;;;5.50;3.50;;;;;;;21.23;75.64;99628.53;5002417;28;103308;-65
2022/10/18 08:56:33;;;;;;;3.65;3.03;;;;;;;21.36;72.50;99620.88;5003159;28;104739;-66
2022/10/18 08:59:04;;;;;;;3.63;2.88;;;;;;;21.47;73.08;99637.78;5002146;28;102670;-66
2022/10/18 09:01:41;;;;;;;6.40;3.20;;;;;;;21.86;70.23;99639.88;5001646;28;102902;-66
2022/10/18 09:04:22;;;;;;;6.35;2.63;;;;;;;22.91;66.56;99634.88;4994471;28;103818;-65
2022/10/18 09:07:04;;;;;;;7.03;3.60;;;;;;;22.90;67.15;99641.31;4995018;28;103718;-65
2022/10/18 09:09:39;;;;;;;4.38;3.45;;;;;;;22.99;65.03;99628.66;4997222;28;102688;-65
2022/10/18 09:12:26;;;;;;;6.82;4.00;;;;;;;23.00;64.16;99631.19;4994890;28;103126;-66
2022/10/18 09:15:20;;;;;;;6.45;3.88;;;;;;;22.71;66.13;99644.28;4995184;28;104266;-66
2022/10/18 09:18:03;;;;;;;4.95;3.58;;;;;;;20.97;71.80;99662.50;4996841;28;103434;-66
2022/10/18 09:20:40;;;;;;;9.55;3.88;;;;;;;20.65;72.62;99664.88;5004198;28;103077;-66
2022/10/18 09:23:18;;;;;;;5.55;3.72;;;;;;;20.72;72.06;99668.63;5001643;28;103035;-66
2022/10/18 09:25:48;;;;;;;4.63;3.78;;;;;;;21.14;71.90;99664.38;5001673;28;104725;-66
2022/10/18 09:28:32;;;;;;;5.82;3.55;;;;;;;20.62;71.53;99671.41;5000603;28;103297;-66
2022/10/18 09:31:07;;;;;;;8.27;3.72;;;;;;;20.31;73.47;99661.13;5002085;28;102546;-66
2022/10/18 09:33:45;;;;;;;4.13;3.63;;;;;;;21.46;70.70;99658.44;5014214;28;104480;-66
2022/10/18 09:36:19;;;;;;;6.32;3.55;;;;;;;20.62;71.77;99652.59;5002149;28;103363;-66
2022/10/18 09:38:49;;;;;;;8.63;3.10;;;;;;;21.46;70.26;99662.97;5000973;28;104080;-66
2022/10/18 09:41:23;;;;;;;6.35;3.38;;;;;;;21.58;70.81;99661.72;5000925;28;103115;-66
2022/10/18 09:43:56;;;;;;;5.05;3.65;;;;;;;20.97;72.24;99664.38;5002211;28;103612;-66
2022/10/18 09:46:29;;;;;;;5.75;3.30;;;;;;;21.04;71.51;99663.59;5000079;28;104015;-66
2022/10/18 09:49:01;;;;;;;10.90;4.47;;;;;;;21.32;69.58;99673.28;5001961;28;103284;-67
2022/10/18 09:51:33;;;;;;;6.20;3.53;;;;;;;22.20;68.74;99658.75;5004375;28;103814;-66
2022/10/18 09:54:18;;;;;;;6.22;4.13;;;;;;;21.51;69.85;99655.25;4999207;28;102985;-66
2022/10/18 09:56:49;;;;;;;4.40;3.20;;;;;;;21.50;71.05;99653.59;4999990;28;103540;-67
2022/10/18 09:59:35;;;;;;;6.45;3.08;;;;;;;21.85;68.94;99662.38;4999640;28;103106;-66
2022/10/18 10:02:05;;;;;;;7.60;3.60;;;;;;;21.84;68.74;99657.16;5000692;28;102614;-67
2022/10/18 10:04:34;;;;;;;3.63;2.85;;;;;;;22.66;67.37;99659.25;5000587;28;104857;-66
2022/10/18 10:07:08;;;;;;;3.83;3.05;;;;;;;22.62;67.28;99658.72;5000152;28;104419;-67
2022/10/18 10:09:43;;;;;;;6.35;3.38;;;;;;;22.40;67.51;99660.16;5000529;28;103212;-67
2022/10/18 10:12:27;;;;;;;5.35;3.00;;;;;;;22.20;68.19;99657.91;5000697;28;103058;-67
2022/10/18 10:15:06;;;;;;;8.32;3.10;;;;;;;21.61;69.06;99658.72;5001786;28;102627;-68
2022/10/18 10:17:37;;;;;;;4.15;3.60;;;;;;;22.16;68.48;99667.28;5010183;28;104225;-67
2022/10/18 10:20:18;;;;;;;13.95;4.00;;;;;;;22.30;67.79;99664.84;4999117;28;103324;-67
2022/10/18 10:22:47;;;;;;;8.48;3.92;;;;;;;22.42;68.17;99668.06;4999177;28;102598;-68
2022/10/18 10:25:22;;;;;;;5.40;3.80;;;;;;;21.71;69.99;99664.81;5001856;28;103434;-67
2022/10/18 10:27:51;;;;;;;9.48;4.10;;;;;;;22.44;68.03;99664.22;5001096;28;103766;-67
2022/10/18 10:30:23;;;;;;;6.43;3.40;;;;;;;23.23;65.99;99658.31;5001005;28;103407;-68
2022/10/18 10:32:56;;;;;;;9.20;3.60;;;;;;;23.67;63.51;99656.13;5000522;28;102703;-71
2022/10/18 10:35:30;;;;;;;6.60;3.35;;;;;;;23.50;63.51;99655.31;4998443;28;102628;-68
2022/10/18 10:38:23;;;;;;;8.05;3.50;;;;;;;23.75;63.94;99658.00;5000733;28;103521;-68
2022/10/18 10:40:52;;;;;;;3.47;2.80;;;;;;;23.79;62.48;99648.53;5000237;28;103336;-68
2022/10/18 10:43:23;;;;;;;4.13;3.08;;;;;;;24.23;62.99;99634.41;4999106;28;102798;-68
2022/10/18 10:46:08;;;;;;;3.72;2.95;;;;;;;24.24;63.25;99637.94;4998742;28;102789;-68
2022/10/18 10:48:47;;;;;;;6.18;2.70;;;;;;;24.59;60.37;99642.00;4996496;28;103361;-68
2022/10/18 10:51:17;;;;;;;3.45;2.70;;;;;;;24.95;62.13;99637.75;4999844;28;103069;-68
2022/10/18 10:53:51;;;;;;;7.85;2.80;;;;;;;24.66;59.14;99643.81;5000189;28;102678;-68
2022/10/18 10:56:25;;;;;;;5.00;2.85;;;;;;;25.14;59.21;99642.66;4999971;28;102794;-70
2022/10/18 10:58:55;;;;;;;4.72;2.85;;;;;;;24.98;59.60;99648.19;4998612;28;103400;-68
2022/10/18 11:01:29;;;;;;;4.00;2.78;;;;;;;24.07;61.21;99641.69;5000740;28;103301;-68
2022/10/18 11:04:03;;;;;;;5.35;3.10;;;;;;;24.99;59.38;99641.75;5001898;28;102674;-68
2022/10/18 11:06:56;;;;;;;5.03;3.03;;;;;;;25.21;57.69;99648.16;4999379;28;102648;-68
2022/10/18 11:09:37;;;;;;;5.25;2.67;;;;;;;25.17;58.75;99636.91;4998761;28;104168;-68
2022/10/18 11:12:22;;;;;;;7.53;3.63;;;;;;;25.05;58.58;99634.78;5000512;28;103198;-68
2022/10/18 11:14:56;;;;;;;9.02;3.00;;;;;;;24.39;60.79;99624.56;4998669;28;102580;-68
2022/10/18 11:17:32;;;;;;;6.80;3.10;;;;;;;24.73;59.92;99633.09;5000467;28;102735;-68
2022/10/18 11:20:13;;;;;;;4.75;2.55;;;;;;;25.02;59.92;99633.28;5000849;28;102994;-68
2022/10/18 11:22:49;;;;;;;5.68;2.47;;;;;;;24.39;61.39;99636.19;5001038;28;103185;-68
2022/10/18 11:25:22;;;;;;;7.13;3.00;;;;;;;24.92;60.28;99638.09;5000173;28;102740;-67
2022/10/18 11:27:59;;;;;;;8.13;2.88;;;;;;;24.53;62.34;99634.59;4996701;28;103154;-67
2022/10/18 11:30:40;;;;;;;8.80;2.85;;;;;;;23.94;63.43;99631.47;4998006;28;104009;-68
2022/10/18 11:33:20;;;;;;;11.82;3.10;;;;;;;23.90;64.63;99629.25;4999051;28;104510;-69
2022/10/18 11:36:15;;;;;;;6.45;2.72;;;;;;;23.53;65.13;99622.59;4998177;28;102593;-68
2022/10/18 11:38:53;;;;;;;7.05;2.97;;;;;;;23.28;65.17;99630.84;5000254;28;104575;-68
2022/10/18 11:41:31;;;;;;;4.88;2.72;;;;;;;23.25;65.69;99623.94;4997861;28;104041;-70
2022/10/18 11:44:01;;;;;;;9.07;3.08;;;;;;;23.19;65.20;99635.41;4997672;28;103016;-67
2022/10/18 11:46:49;;;;;;;3.67;2.70;;;;;;;22.84;66.42;99635.72;4997190;28;102712;-67